createdAt,value
2018-06-21T00:00:31.557Z,18.90
2018-06-21T00:03:00.250Z,18.80
2018-06-21T00:05:28.802Z,18.80
2018-06-21T00:07:57.433Z,18.70
2018-06-21T00:10:25.934Z,18.90
2018-06-21T00:12:54.538Z,18.90
2018-06-21T00:15:23.060Z,18.90
2018-06-21T00:17:51.615Z,18.90
2018-06-21T00:22:48.531Z,18.70
2018-06-21T00:25:17.063Z,18.50
2018-06-21T00:27:45.556Z,18.30
2018-06-21T00:30:14.010Z,18.40
2018-06-21T00:35:11.190Z,18.70
2018-06-21T00:37:39.703Z,18.10
2018-06-21T00:40:08.338Z,18.40
2018-06-21T00:45:05.116Z,18.30
2018-06-21T00:47:33.642Z,18.40
2018-06-21T00:50:02.383Z,18.20
2018-06-21T00:52:30.922Z,18.00
2018-06-21T00:54:59.622Z,18.20
2018-06-21T00:57:28.091Z,18.20
2018-06-21T00:59:56.601Z,18.20
2018-06-21T01:04:53.298Z,18.10
2018-06-21T01:07:21.999Z,18.10
2018-06-21T01:09:50.665Z,18.20
2018-06-21T01:12:21.260Z,18.20
2018-06-21T01:17:18.981Z,18.20
2018-06-21T01:19:47.759Z,17.90
2018-06-21T01:22:16.395Z,17.80
2018-06-21T01:24:45.007Z,17.90
2018-06-21T01:27:13.489Z,18.00
2018-06-21T01:29:42.150Z,18.10
2018-06-21T01:32:10.554Z,18.00
2018-06-21T01:34:39.002Z,17.90
2018-06-21T01:39:35.810Z,17.80
2018-06-21T01:42:04.289Z,17.80
2018-06-21T01:44:32.793Z,17.80
2018-06-21T01:47:01.355Z,17.80
2018-06-21T01:49:29.999Z,17.90
2018-06-21T01:51:58.753Z,17.90
2018-06-21T01:54:27.425Z,17.90
2018-06-21T01:56:56.071Z,17.80
2018-06-21T01:59:24.580Z,17.80
2018-06-21T02:01:53.058Z,17.80
2018-06-21T02:04:21.524Z,17.80
2018-06-21T02:06:50.041Z,17.80
2018-06-21T02:09:18.635Z,17.80
2018-06-21T02:11:47.171Z,17.60
2018-06-21T02:14:15.726Z,17.50
2018-06-21T02:19:12.421Z,17.60
2018-06-21T02:21:40.967Z,17.60
2018-06-21T02:26:38.506Z,17.70
2018-06-21T02:29:07.210Z,17.60
2018-06-21T02:31:36.057Z,17.70
2018-06-21T02:34:04.650Z,17.60
2018-06-21T02:36:33.325Z,17.40
2018-06-21T02:39:01.832Z,17.40
2018-06-21T02:41:30.376Z,17.50
2018-06-21T02:43:58.941Z,17.50
2018-06-21T02:48:55.914Z,17.30
2018-06-21T02:51:24.413Z,17.10
2018-06-21T02:53:52.865Z,17.00
2018-06-21T02:56:21.406Z,17.10
2018-06-21T02:58:50.049Z,17.20
2018-06-21T03:01:18.607Z,17.40
2018-06-21T03:03:47.114Z,17.30
2018-06-21T03:06:15.616Z,17.20
2018-06-21T03:08:44.171Z,17.40
2018-06-21T03:11:12.716Z,17.40
2018-06-21T03:13:41.255Z,17.30
2018-06-21T03:16:09.765Z,17.40
2018-06-21T03:18:38.261Z,17.30
2018-06-21T03:21:06.777Z,17.20
2018-06-21T03:23:35.253Z,17.10
2018-06-21T03:26:04.399Z,17.20
2018-06-21T03:28:32.974Z,16.90
2018-06-21T03:31:01.503Z,16.90
2018-06-21T03:35:58.267Z,17.10
2018-06-21T03:40:54.933Z,17.10
2018-06-21T03:43:23.442Z,17.20
2018-06-21T03:45:51.968Z,17.20
2018-06-21T03:50:48.844Z,17.30
2018-06-21T03:53:17.302Z,17.20
2018-06-21T03:55:45.914Z,17.10
2018-06-21T03:58:14.606Z,17.20
2018-06-21T04:00:43.250Z,17.30
2018-06-21T04:03:12.076Z,17.40
2018-06-21T04:05:40.538Z,17.30
2018-06-21T04:08:09.048Z,17.30
2018-06-21T04:10:37.529Z,17.30
2018-06-21T04:13:06.069Z,17.30
2018-06-21T04:18:03.091Z,17.20
2018-06-21T04:20:31.699Z,17.30
2018-06-21T04:23:00.354Z,17.20
2018-06-21T04:25:28.839Z,17.20
2018-06-21T04:27:57.412Z,17.10
2018-06-21T04:30:26.286Z,17.20
2018-06-21T04:32:54.853Z,17.20
2018-06-21T04:37:51.602Z,17.20
2018-06-21T04:42:48.582Z,17.30
2018-06-21T04:45:17.146Z,17.50
2018-06-21T04:47:45.673Z,17.70
2018-06-21T04:50:14.358Z,17.70
2018-06-21T04:52:42.886Z,17.80
2018-06-21T04:55:11.337Z,17.80
2018-06-21T04:57:39.843Z,17.80
2018-06-21T05:00:08.449Z,17.90
2018-06-21T05:02:36.945Z,17.90
2018-06-21T05:05:06.287Z,18.00
2018-06-21T05:07:35.134Z,18.00
2018-06-21T05:10:03.735Z,18.00
2018-06-21T05:12:32.227Z,18.00
2018-06-21T05:15:00.796Z,18.20
2018-06-21T05:17:29.263Z,18.20
2018-06-21T05:19:57.738Z,18.40
2018-06-21T05:22:26.230Z,18.40
2018-06-21T05:24:54.713Z,18.50
2018-06-21T05:27:23.196Z,18.60
2018-06-21T05:29:51.661Z,18.60
2018-06-21T05:32:20.178Z,18.70
2018-06-21T05:34:48.680Z,18.90
2018-06-21T05:37:17.161Z,19.00
2018-06-21T05:39:45.633Z,19.00
2018-06-21T05:42:14.191Z,19.10
2018-06-21T05:44:42.666Z,19.10
2018-06-21T05:47:11.172Z,19.10
2018-06-21T05:49:39.702Z,19.20
2018-06-21T05:52:08.206Z,19.30
2018-06-21T05:54:36.699Z,19.40
2018-06-21T05:57:05.194Z,19.40
2018-06-21T05:59:33.682Z,19.40
2018-06-21T06:02:02.177Z,19.50
2018-06-21T06:04:30.594Z,19.50
2018-06-21T06:06:59.123Z,19.60
2018-06-21T06:09:28.762Z,19.80
2018-06-21T06:11:57.396Z,19.90
2018-06-21T06:14:25.926Z,20.00
2018-06-21T06:16:54.570Z,20.10
2018-06-21T06:19:22.997Z,20.30
2018-06-21T06:21:51.434Z,20.50
2018-06-21T06:24:19.892Z,20.60
2018-06-21T06:26:48.400Z,20.60
2018-06-21T06:29:17.014Z,20.80
2018-06-21T06:31:45.431Z,20.90
2018-06-21T06:34:13.890Z,21.10
2018-06-21T06:39:15.702Z,22.00
2018-06-21T06:41:44.385Z,22.10
2018-06-21T06:44:12.878Z,22.20
2018-06-21T06:46:41.344Z,22.40
2018-06-21T06:49:09.993Z,22.40
2018-06-21T06:51:39.199Z,22.40
2018-06-21T06:56:35.905Z,22.50
2018-06-21T06:59:04.361Z,22.50
2018-06-21T07:01:32.939Z,22.60
2018-06-21T07:04:01.415Z,22.70
2018-06-21T07:06:29.891Z,22.80
2018-06-21T07:11:27.816Z,22.90
2018-06-21T07:13:57.151Z,22.90
2018-06-21T07:16:26.099Z,23.00
2018-06-21T07:18:54.666Z,23.00
2018-06-21T07:21:23.103Z,23.00
2018-06-21T07:23:51.909Z,23.20
2018-06-21T07:28:49.073Z,23.30
2018-06-21T07:33:46.447Z,23.50
2018-06-21T07:36:15.146Z,23.70
2018-06-21T07:38:44.446Z,23.60
2018-06-21T07:41:12.871Z,23.80
2018-06-21T07:43:41.359Z,23.90
2018-06-21T07:46:09.841Z,24.40
2018-06-21T07:48:38.291Z,24.30
2018-06-21T07:51:07.182Z,23.90
2018-06-21T07:53:36.079Z,23.50
2018-06-21T07:56:04.964Z,23.60
2018-06-21T07:58:33.474Z,23.60
2018-06-21T08:01:01.926Z,23.70
2018-06-21T08:03:30.907Z,24.00
2018-06-21T08:05:59.554Z,24.10
2018-06-21T08:08:28.092Z,23.70
2018-06-21T08:10:56.607Z,23.50
2018-06-21T08:13:25.026Z,23.50
2018-06-21T08:15:53.521Z,23.70
2018-06-21T08:18:21.992Z,23.90
2018-06-21T08:20:50.498Z,24.10
2018-06-21T08:23:18.957Z,24.10
2018-06-21T08:28:15.558Z,24.30
2018-06-21T08:30:44.033Z,24.20
2018-06-21T08:33:12.470Z,24.40
2018-06-21T08:35:41.546Z,24.40
2018-06-21T08:40:38.152Z,24.60
2018-06-21T08:43:06.620Z,24.80
2018-06-21T08:45:35.095Z,24.60
2018-06-21T08:48:03.652Z,24.40
2018-06-21T08:50:32.138Z,24.40
2018-06-21T08:53:00.628Z,24.80
2018-06-21T08:55:29.065Z,24.90
2018-06-21T08:57:57.509Z,25.00
2018-06-21T09:00:25.964Z,24.90
2018-06-21T09:02:54.522Z,24.90
2018-06-21T09:05:23.090Z,25.10
2018-06-21T09:07:51.804Z,24.80
2018-06-21T09:10:20.247Z,24.60
2018-06-21T09:12:48.761Z,24.50
2018-06-21T09:17:45.390Z,24.80
2018-06-21T09:20:13.862Z,24.60
2018-06-21T09:22:42.348Z,24.60
2018-06-21T09:25:10.859Z,24.70
2018-06-21T09:27:39.271Z,24.40
2018-06-21T09:30:07.767Z,24.10
2018-06-21T09:32:36.200Z,24.40
2018-06-21T09:35:04.732Z,24.80
2018-06-21T09:37:38.505Z,25.20
2018-06-21T09:40:12.139Z,25.20
2018-06-21T09:42:45.971Z,25.20
2018-06-21T09:45:18.683Z,25.00
2018-06-21T09:47:52.447Z,24.80
2018-06-21T09:50:20.904Z,24.90
2018-06-21T09:52:49.370Z,24.90
2018-06-21T09:55:17.830Z,25.10
2018-06-21T09:57:46.283Z,24.90
2018-06-21T10:00:20.039Z,24.70
2018-06-21T10:02:48.501Z,24.40
2018-06-21T10:05:16.964Z,24.30
2018-06-21T10:07:45.400Z,24.20
2018-06-21T10:10:13.837Z,24.00
2018-06-21T10:12:45.212Z,24.10
2018-06-21T10:15:14.843Z,24.30
2018-06-21T10:17:43.302Z,24.60
2018-06-21T10:20:11.750Z,24.60
2018-06-21T10:22:40.189Z,24.40
2018-06-21T10:25:09.630Z,24.20
2018-06-21T10:27:38.138Z,24.10
2018-06-21T10:30:07.618Z,23.80
2018-06-21T10:32:36.092Z,24.00
2018-06-21T10:35:04.634Z,24.30
2018-06-21T10:37:33.018Z,24.40
2018-06-21T10:40:01.532Z,24.70
2018-06-21T10:42:30.154Z,25.70
2018-06-21T10:44:58.597Z,25.70
2018-06-21T10:47:26.992Z,25.40
2018-06-21T10:49:55.475Z,25.30
2018-06-21T10:52:24.010Z,25.30
2018-06-21T10:54:52.552Z,25.30
2018-06-21T10:57:21.051Z,25.80
2018-06-21T10:59:49.491Z,25.40
2018-06-21T11:02:17.913Z,25.30
2018-06-21T11:04:46.402Z,25.10
2018-06-21T11:07:14.828Z,24.70
2018-06-21T11:09:43.298Z,23.60
2018-06-21T11:14:39.983Z,22.20
2018-06-21T11:17:08.739Z,21.90
2018-06-21T11:22:06.263Z,21.70
2018-06-21T11:24:34.788Z,21.60
2018-06-21T11:29:31.416Z,21.50
2018-06-21T11:31:59.894Z,21.40
2018-06-21T11:34:29.081Z,21.50
2018-06-21T11:36:57.535Z,21.50
2018-06-21T11:39:26.023Z,21.50
2018-06-21T11:41:54.566Z,21.50
2018-06-21T11:46:52.201Z,21.80
2018-06-21T11:49:20.691Z,21.80
2018-06-21T11:51:49.562Z,21.90
2018-06-21T11:57:40.469Z,21.30
2018-06-21T12:00:09.002Z,21.10
2018-06-21T12:02:37.609Z,20.90
2018-06-21T12:05:06.366Z,20.80
2018-06-21T12:07:34.922Z,20.70
2018-06-21T12:12:31.658Z,20.50
2018-06-21T12:15:00.158Z,20.40
2018-06-21T12:17:28.580Z,20.30
2018-06-21T12:19:57.052Z,20.30
2018-06-21T12:22:25.651Z,20.40
2018-06-21T12:24:54.126Z,20.30
2018-06-21T12:27:22.621Z,20.30
2018-06-21T12:29:51.122Z,20.40
2018-06-21T12:32:19.623Z,20.50
2018-06-21T12:34:48.414Z,20.60
2018-06-21T12:39:45.157Z,20.80
2018-06-21T12:42:13.750Z,20.80
2018-06-21T12:44:42.534Z,20.70
2018-06-21T12:47:11.068Z,20.90
2018-06-21T12:49:39.584Z,21.50
2018-06-21T12:52:08.170Z,22.00
2018-06-21T12:54:36.683Z,21.90
2018-06-21T12:59:33.366Z,21.90
2018-06-21T13:02:01.885Z,22.20
2018-06-21T13:04:30.459Z,22.30
2018-06-21T13:06:59.016Z,22.60
2018-06-21T13:10:41.577Z,22.70
2018-06-21T13:13:19.545Z,22.80
2018-06-21T13:15:48.355Z,22.40
2018-06-21T13:18:16.858Z,22.10
2018-06-21T13:20:45.422Z,21.90
2018-06-21T13:23:14.067Z,22.40
2018-06-21T13:25:42.517Z,22.60
2018-06-21T13:28:11.062Z,22.50
2018-06-21T13:30:39.805Z,22.70
2018-06-21T13:33:08.303Z,22.80
2018-06-21T13:35:36.840Z,22.80
2018-06-21T13:38:05.447Z,22.60
2018-06-21T13:40:34.106Z,22.80
2018-06-21T13:43:02.643Z,23.00
2018-06-21T13:45:31.211Z,23.00
2018-06-21T13:47:59.915Z,22.90
2018-06-21T13:50:28.404Z,22.90
2018-06-21T13:52:56.932Z,23.20
2018-06-21T13:57:53.567Z,23.20
2018-06-21T14:00:21.985Z,23.20
2018-06-21T14:07:46.698Z,23.00
2018-06-21T14:10:15.267Z,23.20
2018-06-21T14:12:44.059Z,23.30
2018-06-21T14:15:12.545Z,23.10
2018-06-21T14:17:41.049Z,23.00
2018-06-21T14:20:09.592Z,22.60
2018-06-21T14:22:38.138Z,22.20
2018-06-21T14:25:06.590Z,22.20
2018-06-21T14:27:35.110Z,22.50
2018-06-21T14:30:03.628Z,22.50
2018-06-21T14:32:32.097Z,22.90
2018-06-21T14:35:00.778Z,22.80
2018-06-21T14:37:29.315Z,22.50
2018-06-21T14:39:57.838Z,22.80
2018-06-21T14:42:26.354Z,22.80
2018-06-21T14:44:54.867Z,22.60
2018-06-21T14:47:23.406Z,22.60
2018-06-21T14:49:51.868Z,22.20
2018-06-21T14:52:20.882Z,22.20
2018-06-21T14:57:17.614Z,22.70
2018-06-21T14:59:46.135Z,22.50
2018-06-21T15:02:14.695Z,22.40
2018-06-21T15:04:43.198Z,22.40
2018-06-21T15:07:11.688Z,22.50
2018-06-21T15:09:40.166Z,22.40
2018-06-21T15:12:08.585Z,22.60
2018-06-21T15:14:37.125Z,22.70
2018-06-21T15:17:05.690Z,22.60
2018-06-21T15:19:34.213Z,23.00
2018-06-21T15:22:02.614Z,22.80
2018-06-21T15:24:31.174Z,22.80
2018-06-21T15:26:59.682Z,22.90
2018-06-21T15:29:28.185Z,22.60
2018-06-21T15:31:57.101Z,22.20
2018-06-21T15:34:25.660Z,22.00
2018-06-21T15:36:54.178Z,21.90
2018-06-21T15:39:23.855Z,21.80
2018-06-21T15:41:52.531Z,21.70
2018-06-21T15:44:20.991Z,21.60
2018-06-21T15:46:49.531Z,21.70
2018-06-21T15:49:17.989Z,21.80
2018-06-21T15:51:46.478Z,22.20
2018-06-21T15:56:43.491Z,22.50
2018-06-21T15:59:12.033Z,22.30
2018-06-21T16:01:40.481Z,22.10
2018-06-21T16:04:09.057Z,22.00
2018-06-21T16:06:37.528Z,21.90
2018-06-21T16:09:09.247Z,21.90
2018-06-21T16:11:37.674Z,21.90
2018-06-21T16:14:06.202Z,21.70
2018-06-21T16:16:35.014Z,21.70
2018-06-21T16:19:03.649Z,21.70
2018-06-21T16:21:32.126Z,21.60
2018-06-21T16:24:00.618Z,21.60
2018-06-21T16:28:57.232Z,21.60
2018-06-21T16:31:26.945Z,21.60
2018-06-21T16:33:55.554Z,21.40
2018-06-21T16:36:24.042Z,21.30
2018-06-21T16:38:52.594Z,21.30
2018-06-21T16:41:21.106Z,21.40
2018-06-21T16:43:49.642Z,21.20
2018-06-21T16:46:18.133Z,21.20
2018-06-21T16:48:47.000Z,21.10
2018-06-21T16:51:15.567Z,21.00
2018-06-21T16:53:44.109Z,20.80
2018-06-21T16:56:12.633Z,21.00
2018-06-21T16:58:41.114Z,20.80
2018-06-21T17:01:09.675Z,21.00
2018-06-21T17:06:06.522Z,20.90
2018-06-21T17:08:35.080Z,20.90
2018-06-21T17:11:03.643Z,20.60
2018-06-21T17:13:32.270Z,20.60
2018-06-21T17:16:01.460Z,20.50
2018-06-21T17:18:29.950Z,20.50
2018-06-21T17:20:58.468Z,20.50
2018-06-21T17:23:26.953Z,20.50
2018-06-21T17:25:55.446Z,20.40
2018-06-21T17:28:23.954Z,20.40
2018-06-21T17:30:52.513Z,20.30
2018-06-21T17:33:21.130Z,20.20
2018-06-21T17:35:49.650Z,20.20
2018-06-21T17:38:18.176Z,20.20
2018-06-21T17:40:46.735Z,20.10
2018-06-21T17:43:15.295Z,20.10
2018-06-21T17:48:13.158Z,19.80
2018-06-21T17:50:42.552Z,19.80
2018-06-21T17:53:11.056Z,19.70
2018-06-21T17:58:07.817Z,19.70
2018-06-21T18:00:36.414Z,19.60
2018-06-21T18:03:04.913Z,19.40
2018-06-21T18:05:33.445Z,19.40
2018-06-21T18:08:01.922Z,19.40
2018-06-21T18:10:30.418Z,19.40
2018-06-21T18:15:27.288Z,19.20
2018-06-21T18:17:55.855Z,19.10
2018-06-21T18:22:52.567Z,18.90
2018-06-21T18:25:21.100Z,18.90
2018-06-21T18:30:18.514Z,18.90
2018-06-21T18:32:47.056Z,18.80
2018-06-21T18:35:15.577Z,18.70
2018-06-21T18:37:44.106Z,18.60
2018-06-21T18:40:12.666Z,18.50
2018-06-21T18:42:41.162Z,18.40
2018-06-21T18:45:09.947Z,18.30
2018-06-21T18:47:38.879Z,18.30
2018-06-21T18:50:07.468Z,18.20
2018-06-21T18:52:36.199Z,18.20
2018-06-21T18:55:04.850Z,18.10
2018-06-21T18:57:33.415Z,18.00
2018-06-21T19:00:02.168Z,18.00
2018-06-21T19:02:30.723Z,17.90
2018-06-21T19:04:59.357Z,17.80
2018-06-21T19:07:29.958Z,17.60
2018-06-21T19:10:03.750Z,17.60
2018-06-21T19:12:32.479Z,17.50
2018-06-21T19:15:01.008Z,17.40
2018-06-21T19:17:30.263Z,17.30
2018-06-21T19:19:58.791Z,17.30
2018-06-21T19:22:27.254Z,17.10
2018-06-21T19:24:55.795Z,17.00
2018-06-21T19:27:24.413Z,17.00
2018-06-21T19:29:52.900Z,16.90
2018-06-21T19:32:21.402Z,16.80
2018-06-21T19:34:49.902Z,16.80
2018-06-21T19:37:18.483Z,16.70
2018-06-21T19:39:47.058Z,16.60
2018-06-21T19:42:15.591Z,16.50
2018-06-21T19:44:44.076Z,16.50
2018-06-21T19:47:12.603Z,16.50
2018-06-21T19:49:41.050Z,16.40
2018-06-21T19:52:09.635Z,16.40
2018-06-21T19:54:38.248Z,16.30
2018-06-21T19:57:06.895Z,16.30
2018-06-21T19:59:35.458Z,16.20
2018-06-21T20:02:03.978Z,16.10
2018-06-21T20:04:32.791Z,16.10
2018-06-21T20:07:01.498Z,16.10
2018-06-21T20:09:32.808Z,16.00
2018-06-21T20:12:01.274Z,15.90
2018-06-21T20:14:29.773Z,15.80
2018-06-21T20:16:58.273Z,15.80
2018-06-21T20:19:26.738Z,15.70
2018-06-21T20:21:55.170Z,15.60
2018-06-21T20:24:23.609Z,15.60
2018-06-21T20:26:52.167Z,15.50
2018-06-21T20:29:21.289Z,15.50
2018-06-21T20:31:49.793Z,15.50
2018-06-21T20:34:18.311Z,15.40
2018-06-21T20:36:47.044Z,15.30
2018-06-21T20:39:15.556Z,15.30
2018-06-21T20:41:44.002Z,15.30
2018-06-21T20:44:12.588Z,15.20
2018-06-21T20:46:41.036Z,15.20
2018-06-21T20:49:09.538Z,15.10
2018-06-21T20:51:38.061Z,15.10
2018-06-21T20:54:06.573Z,15.00
2018-06-21T20:56:35.033Z,15.00
2018-06-21T20:59:03.558Z,14.90
2018-06-21T21:01:32.052Z,14.90
2018-06-21T21:04:00.636Z,14.80
2018-06-21T21:06:29.113Z,14.80
2018-06-21T21:08:57.761Z,14.80
2018-06-21T21:11:26.273Z,14.80
2018-06-21T21:13:54.821Z,14.80
2018-06-21T21:16:23.277Z,14.70
2018-06-21T21:18:51.781Z,14.70
2018-06-21T21:21:20.274Z,14.70
2018-06-21T21:23:49.221Z,14.60
2018-06-21T21:26:17.813Z,14.60
2018-06-21T21:28:46.337Z,14.50
2018-06-21T21:31:14.782Z,14.50
2018-06-21T21:33:43.242Z,14.40
2018-06-21T21:36:11.922Z,14.40
2018-06-21T21:38:40.381Z,14.40
2018-06-21T21:41:08.842Z,14.50
2018-06-21T21:43:37.310Z,14.50
2018-06-21T21:46:06.006Z,14.40
2018-06-21T21:48:34.487Z,14.70
2018-06-21T21:51:02.922Z,14.80
2018-06-21T21:55:59.587Z,14.40
2018-06-21T21:58:28.010Z,14.50
2018-06-21T22:00:57.499Z,14.50
2018-06-21T22:03:26.744Z,14.40
2018-06-21T22:05:55.244Z,14.50
2018-06-21T22:10:51.923Z,14.20
2018-06-21T22:13:20.441Z,14.10
2018-06-21T22:15:48.951Z,13.90
2018-06-21T22:18:17.457Z,13.80
2018-06-21T22:23:14.101Z,13.90
2018-06-21T22:25:42.727Z,13.90
2018-06-21T22:28:11.165Z,13.80
2018-06-21T22:35:35.976Z,13.80
2018-06-21T22:38:04.781Z,13.80
2018-06-21T22:43:01.374Z,13.50
2018-06-21T22:45:29.883Z,13.90
2018-06-21T22:47:58.381Z,13.80
2018-06-21T22:50:26.846Z,13.60
2018-06-21T22:52:55.313Z,13.50
2018-06-21T22:55:23.772Z,13.50
2018-06-21T22:57:52.225Z,13.50
2018-06-21T23:00:20.852Z,13.50
2018-06-21T23:02:49.306Z,13.40
2018-06-21T23:05:17.738Z,13.40
2018-06-21T23:07:46.231Z,13.40
2018-06-21T23:12:42.903Z,13.40
2018-06-21T23:15:11.321Z,13.40
2018-06-21T23:17:39.805Z,13.30
2018-06-21T23:20:08.236Z,13.20
2018-06-21T23:22:36.751Z,13.20
2018-06-21T23:25:05.327Z,13.20
2018-06-21T23:27:33.806Z,13.20
2018-06-21T23:30:02.332Z,13.30
2018-06-21T23:32:30.829Z,13.20
2018-06-21T23:34:59.322Z,13.20
2018-06-21T23:37:28.021Z,13.00
2018-06-21T23:39:56.489Z,13.10
2018-06-21T23:44:53.298Z,13.00
2018-06-21T23:47:21.696Z,13.00
2018-06-21T23:49:50.180Z,13.00
2018-06-21T23:52:18.692Z,13.00
2018-06-21T23:57:15.326Z,13.00
2018-06-21T23:59:43.819Z,12.70
